createdAt,value
2019-02-28T00:00:37.236Z,6.37
2019-02-28T00:03:06.188Z,7.47
2019-02-28T00:05:37.945Z,6.60
2019-02-28T00:08:11.438Z,6.93
2019-02-28T00:10:40.126Z,7.13
2019-02-28T00:13:14.951Z,6.60
2019-02-28T00:15:43.843Z,6.40
2019-02-28T00:18:15.287Z,6.83
2019-02-28T00:20:49.822Z,6.57
2019-02-28T00:23:25.060Z,6.90
2019-02-28T00:26:11.376Z,6.87
2019-02-28T00:28:36.776Z,6.10
2019-02-28T00:31:05.659Z,6.47
2019-02-28T00:33:41.921Z,6.67
2019-02-28T00:36:10.460Z,6.70
2019-02-28T00:38:46.674Z,7.03
2019-02-28T00:41:15.355Z,6.93
2019-02-28T00:43:43.944Z,7.27
2019-02-28T00:46:19.184Z,7.77
2019-02-28T00:48:48.074Z,7.13
2019-02-28T00:51:23.124Z,7.37
2019-02-28T00:53:51.896Z,7.73
2019-02-28T00:56:20.582Z,7.67
2019-02-28T00:58:56.074Z,8.37
2019-02-28T01:01:24.919Z,7.30
2019-02-28T01:04:00.979Z,7.80
2019-02-28T01:06:44.209Z,8.10
2019-02-28T01:09:27.150Z,7.40
2019-02-28T01:11:56.739Z,8.07
2019-02-28T01:14:25.634Z,7.67
2019-02-28T01:17:01.599Z,8.17
2019-02-28T01:19:30.373Z,7.27
2019-02-28T01:22:06.023Z,7.70
2019-02-28T01:24:41.273Z,7.97
2019-02-28T01:27:23.363Z,7.67
2019-02-28T01:29:52.255Z,7.80
2019-02-28T01:32:21.158Z,8.37
2019-02-28T01:34:56.394Z,8.67
2019-02-28T01:37:25.180Z,8.57
2019-02-28T01:40:04.392Z,8.90
2019-02-28T01:42:31.359Z,7.97
2019-02-28T01:45:00.046Z,9.07
2019-02-28T01:47:36.207Z,9.17
2019-02-28T01:50:06.736Z,8.60
2019-02-28T01:52:45.969Z,8.70
2019-02-28T01:55:12.802Z,9.33
2019-02-28T01:57:44.051Z,9.40
2019-02-28T02:00:23.801Z,8.53
2019-02-28T02:02:51.677Z,8.63
2019-02-28T02:05:20.464Z,9.00
2019-02-28T02:07:56.521Z,9.63
2019-02-28T02:10:25.206Z,8.40
2019-02-28T02:13:03.127Z,9.37
2019-02-28T02:15:31.901Z,9.57
2019-02-28T02:18:09.339Z,9.63
2019-02-28T02:20:37.679Z,9.77
2019-02-28T02:23:19.873Z,10.07
2019-02-28T02:25:55.062Z,10.20
2019-02-28T02:28:37.115Z,10.17
2019-02-28T02:31:05.800Z,9.77
2019-02-28T02:33:34.691Z,9.73
2019-02-28T02:36:10.136Z,9.30
2019-02-28T02:38:41.481Z,10.47
2019-02-28T02:41:16.522Z,10.30
2019-02-28T02:43:45.319Z,10.60
2019-02-28T02:46:19.639Z,11.03
2019-02-28T02:48:51.081Z,11.47
2019-02-28T02:51:19.972Z,10.63
2019-02-28T02:53:55.824Z,11.07
2019-02-28T02:56:24.648Z,11.40
2019-02-28T02:58:53.608Z,10.47
2019-02-28T03:01:29.890Z,11.53
2019-02-28T03:03:58.764Z,11.03
2019-02-28T03:06:34.626Z,11.57
2019-02-28T03:09:09.694Z,11.43
2019-02-28T03:11:35.470Z,12.70
2019-02-28T03:14:16.173Z,12.53
2019-02-28T03:16:41.964Z,12.03
2019-02-28T03:19:17.818Z,12.53
2019-02-28T03:21:51.453Z,11.17
2019-02-28T03:24:30.142Z,12.27
2019-02-28T03:27:04.786Z,12.23
2019-02-28T03:29:47.194Z,12.70
2019-02-28T03:32:15.872Z,13.30
2019-02-28T03:34:55.010Z,13.17
2019-02-28T03:37:22.041Z,13.30
2019-02-28T03:39:50.936Z,13.40
2019-02-28T03:42:28.881Z,14.40
2019-02-28T03:44:58.186Z,13.50
2019-02-28T03:47:27.025Z,13.77
2019-02-28T03:50:02.985Z,13.87
2019-02-28T03:52:31.670Z,14.83
2019-02-28T03:55:07.117Z,14.73
2019-02-28T03:57:36.008Z,14.90
2019-02-28T04:00:10.737Z,16.33
2019-02-28T04:02:46.694Z,16.17
2019-02-28T04:05:15.280Z,16.73
2019-02-28T04:07:53.642Z,17.87
2019-02-28T04:10:22.566Z,17.07
2019-02-28T04:12:54.443Z,18.53
2019-02-28T04:15:29.992Z,18.60
2019-02-28T04:17:58.679Z,19.70
2019-02-28T04:20:37.315Z,20.20
2019-02-28T04:23:04.961Z,18.77
2019-02-28T04:25:47.271Z,19.87
2019-02-28T04:28:22.311Z,19.17
2019-02-28T04:31:04.098Z,19.10
2019-02-28T04:33:37.366Z,17.83
2019-02-28T04:36:03.212Z,18.87
2019-02-28T04:38:38.667Z,17.97
2019-02-28T04:41:07.547Z,19.80
2019-02-28T04:43:44.414Z,18.90
2019-02-28T04:46:12.909Z,18.03
2019-02-28T04:48:41.549Z,20.10
2019-02-28T04:51:16.440Z,19.50
2019-02-28T04:53:45.110Z,20.67
2019-02-28T04:56:20.149Z,19.87
2019-02-28T04:58:48.689Z,20.83
2019-02-28T05:01:17.409Z,21.10
2019-02-28T05:03:52.777Z,21.67
2019-02-28T05:06:21.902Z,20.67
2019-02-28T05:08:57.425Z,22.43
2019-02-28T05:11:27.355Z,21.53
2019-02-28T05:13:56.620Z,22.27
2019-02-28T05:16:31.975Z,24.47
2019-02-28T05:19:01.674Z,24.60
2019-02-28T05:21:38.050Z,24.97
2019-02-28T05:24:07.743Z,25.60
2019-02-28T05:26:52.412Z,27.57
2019-02-28T05:29:27.856Z,27.40
2019-02-28T05:32:09.675Z,27.43
2019-02-28T05:34:38.342Z,26.27
2019-02-28T05:37:11.896Z,28.23
2019-02-28T05:39:44.113Z,30.03
2019-02-28T05:42:12.897Z,29.50
2019-02-28T05:44:48.363Z,27.63
2019-02-28T05:47:17.241Z,30.90
2019-02-28T05:49:45.826Z,29.30
2019-02-28T05:52:20.973Z,29.90
2019-02-28T05:54:50.328Z,30.57
2019-02-28T05:57:27.441Z,29.33
2019-02-28T06:00:01.470Z,29.63
2019-02-28T06:02:26.243Z,32.67
2019-02-28T06:05:01.608Z,31.87
2019-02-28T06:07:30.483Z,31.27
2019-02-28T06:10:05.838Z,30.57
2019-02-28T06:12:34.408Z,32.50
2019-02-28T06:15:03.759Z,32.63
2019-02-28T06:17:39.769Z,30.40
2019-02-28T06:20:10.091Z,31.27
2019-02-28T06:22:45.137Z,33.30
2019-02-28T06:25:24.023Z,31.17
2019-02-28T06:28:04.685Z,33.13
2019-02-28T06:30:33.619Z,32.80
2019-02-28T06:33:02.277Z,32.83
2019-02-28T06:35:38.059Z,34.73
2019-02-28T06:38:06.843Z,33.97
2019-02-28T06:40:42.597Z,33.57
2019-02-28T06:43:11.295Z,32.67
2019-02-28T06:45:40.148Z,34.40
2019-02-28T06:48:15.121Z,33.23
2019-02-28T06:50:44.670Z,33.20
2019-02-28T06:53:21.321Z,34.93
2019-02-28T06:55:49.976Z,34.83
2019-02-28T06:58:18.560Z,36.27
2019-02-28T07:00:54.005Z,35.30
2019-02-28T07:03:22.875Z,35.30
2019-02-28T07:06:01.029Z,36.93
2019-02-28T07:08:29.083Z,36.67
2019-02-28T07:10:57.969Z,34.67
2019-02-28T07:13:39.024Z,36.73
2019-02-28T07:16:04.411Z,38.03
2019-02-28T07:18:40.524Z,36.37
2019-02-28T07:21:09.170Z,36.83
2019-02-28T07:23:37.672Z,36.40
2019-02-28T07:26:12.837Z,35.70
2019-02-28T07:28:48.379Z,35.73
2019-02-28T07:31:29.857Z,37.07
2019-02-28T07:33:58.539Z,35.57
2019-02-28T07:36:27.157Z,36.77
2019-02-28T07:39:04.469Z,42.37
2019-02-28T07:41:32.592Z,38.20
2019-02-28T07:44:08.658Z,37.80
2019-02-28T07:46:38.799Z,37.80
2019-02-28T07:49:07.354Z,39.67
2019-02-28T07:51:42.904Z,39.23
2019-02-28T07:54:12.666Z,37.17
2019-02-28T07:56:48.506Z,39.33
2019-02-28T07:59:17.356Z,38.63
2019-02-28T08:01:53.079Z,39.93
2019-02-28T08:04:21.919Z,37.77
2019-02-28T08:06:50.454Z,38.63
2019-02-28T08:09:31.878Z,39.13
2019-02-28T08:12:00.565Z,38.87
2019-02-28T08:14:35.830Z,40.33
2019-02-28T08:17:05.403Z,39.60
2019-02-28T08:19:34.724Z,39.83
2019-02-28T08:22:10.783Z,39.83
2019-02-28T08:24:39.296Z,38.53
2019-02-28T08:27:14.702Z,39.67
2019-02-28T08:29:50.224Z,40.87
2019-02-28T08:32:33.768Z,39.50
2019-02-28T08:35:02.121Z,41.13
2019-02-28T08:37:30.942Z,40.97
2019-02-28T08:40:05.685Z,41.27
2019-02-28T08:42:38.705Z,42.20
2019-02-28T08:45:14.203Z,42.03
2019-02-28T08:47:42.823Z,44.03
2019-02-28T08:50:19.067Z,42.63
2019-02-28T08:52:50.821Z,44.57
2019-02-28T08:55:28.367Z,44.03
2019-02-28T08:58:01.321Z,43.47
2019-02-28T09:00:31.292Z,42.93
2019-02-28T09:03:03.800Z,45.10
2019-02-28T09:05:32.372Z,44.30
2019-02-28T09:08:01.158Z,44.37
2019-02-28T09:10:37.527Z,44.37
2019-02-28T09:13:08.694Z,45.37
2019-02-28T09:15:43.414Z,46.13
2019-02-28T09:18:12.095Z,46.37
2019-02-28T09:20:41.414Z,48.10
2019-02-28T09:23:18.410Z,46.20
2019-02-28T09:25:47.032Z,45.60
2019-02-28T09:28:28.849Z,47.03
2019-02-28T09:31:05.059Z,46.50
2019-02-28T09:33:42.112Z,48.37
2019-02-28T09:36:10.795Z,46.30
2019-02-28T09:38:42.208Z,47.33
2019-02-28T09:41:16.357Z,47.13
2019-02-28T09:43:45.030Z,46.53
2019-02-28T09:46:20.886Z,48.50
2019-02-28T09:48:49.483Z,48.20
2019-02-28T09:51:18.471Z,49.17
2019-02-28T09:53:53.604Z,48.77
2019-02-28T09:56:22.293Z,50.07
2019-02-28T09:59:00.232Z,49.43
2019-02-28T10:01:27.868Z,46.80
2019-02-28T10:03:56.594Z,48.43
2019-02-28T10:06:33.158Z,48.27
2019-02-28T10:09:01.728Z,47.23
2019-02-28T10:11:37.310Z,47.23
2019-02-28T10:14:05.931Z,48.17
2019-02-28T10:16:41.803Z,45.93
2019-02-28T10:19:13.436Z,47.77
2019-02-28T10:21:40.650Z,47.05
2019-02-28T10:24:15.810Z,47.00
2019-02-28T10:26:44.349Z,44.18
2019-02-28T10:29:25.665Z,46.27
2019-02-28T10:32:01.349Z,46.07
2019-02-28T10:34:30.108Z,46.13
2019-02-28T10:37:05.318Z,47.17
2019-02-28T10:39:33.962Z,45.73
2019-02-28T10:42:09.287Z,46.63
2019-02-28T10:44:38.009Z,46.98
2019-02-28T10:47:06.650Z,45.57
2019-02-28T10:49:42.633Z,48.27
2019-02-28T10:52:11.219Z,47.37
2019-02-28T10:54:48.666Z,47.23
2019-02-28T10:57:16.710Z,47.73
2019-02-28T10:59:46.206Z,46.60
2019-02-28T11:02:21.501Z,47.13
2019-02-28T11:04:50.200Z,46.37
2019-02-28T11:07:25.287Z,45.73
2019-02-28T11:09:55.598Z,44.17
2019-02-28T11:12:24.571Z,44.87
2019-02-28T11:14:59.765Z,44.97
2019-02-28T11:17:30.395Z,43.40
2019-02-28T11:20:05.916Z,43.47
2019-02-28T11:22:36.555Z,45.27
2019-02-28T11:25:20.646Z,43.87
2019-02-28T11:27:49.123Z,42.57
2019-02-28T11:30:44.647Z,44.67
2019-02-28T11:33:22.777Z,43.37
2019-02-28T11:35:59.058Z,42.93
2019-02-28T11:38:27.409Z,42.23
2019-02-28T11:40:57.471Z,42.40
2019-02-28T11:43:37.362Z,47.50
2019-02-28T11:46:03.552Z,42.30
2019-02-28T11:48:39.136Z,41.70
2019-02-28T11:51:07.941Z,40.77
2019-02-28T11:53:43.911Z,41.43
2019-02-28T11:56:12.466Z,39.47
2019-02-28T11:58:41.168Z,40.17
2019-02-28T12:01:17.138Z,39.10
2019-02-28T12:03:45.762Z,38.50
2019-02-28T12:06:22.414Z,39.27
2019-02-28T12:08:51.389Z,40.77
2019-02-28T12:11:19.977Z,39.27
2019-02-28T12:13:56.155Z,40.17
2019-02-28T12:16:25.029Z,39.43
2019-02-28T12:19:00.107Z,40.10
2019-02-28T12:21:28.696Z,40.17
2019-02-28T12:23:58.346Z,37.90
2019-02-28T12:26:33.978Z,37.57
2019-02-28T12:29:02.646Z,38.03
2019-02-28T12:31:44.182Z,38.83
2019-02-28T12:34:20.149Z,37.30
2019-02-28T12:36:55.992Z,36.13
2019-02-28T12:39:24.586Z,36.33
2019-02-28T12:41:53.162Z,39.47
2019-02-28T12:44:28.610Z,36.97
2019-02-28T12:46:57.222Z,38.30
2019-02-28T12:49:32.608Z,37.33
2019-02-28T12:52:01.403Z,35.17
2019-02-28T12:54:33.043Z,37.73
2019-02-28T12:57:06.974Z,37.87
2019-02-28T12:59:35.895Z,37.93
2019-02-28T13:02:11.655Z,38.67
2019-02-28T13:04:40.202Z,39.33
2019-02-28T13:07:16.403Z,38.03
2019-02-28T13:09:45.169Z,37.97
2019-02-28T13:12:13.715Z,38.47
2019-02-28T13:14:49.105Z,40.57
2019-02-28T13:17:17.886Z,38.93
2019-02-28T13:19:56.692Z,39.83
2019-02-28T13:22:24.432Z,41.27
2019-02-28T13:24:53.076Z,41.07
2019-02-28T13:27:29.022Z,40.77
2019-02-28T13:29:57.756Z,40.10
2019-02-28T13:32:39.750Z,39.10
2019-02-28T13:35:24.364Z,39.13
2019-02-28T13:37:59.847Z,39.03
2019-02-28T13:40:28.424Z,38.23
2019-02-28T13:42:57.101Z,37.03
2019-02-28T13:45:32.762Z,37.57
2019-02-28T13:48:03.358Z,37.70
2019-02-28T13:50:40.426Z,37.97
2019-02-28T13:53:18.938Z,37.87
2019-02-28T13:55:41.626Z,37.83
2019-02-28T13:58:21.499Z,36.03
2019-02-28T14:00:47.916Z,36.63
2019-02-28T14:03:23.547Z,37.33
2019-02-28T14:05:52.227Z,36.83
2019-02-28T14:08:21.124Z,37.53
2019-02-28T14:10:56.067Z,35.67
2019-02-28T14:13:24.753Z,36.63
2019-02-28T14:16:00.561Z,37.93
2019-02-28T14:18:29.383Z,34.47
2019-02-28T14:20:59.422Z,36.30
2019-02-28T14:23:34.946Z,36.40
2019-02-28T14:26:03.554Z,36.13
2019-02-28T14:28:41.850Z,35.27
2019-02-28T14:31:17.101Z,36.63
2019-02-28T14:33:59.593Z,36.43
2019-02-28T14:36:28.151Z,39.53
2019-02-28T14:38:56.965Z,36.43
2019-02-28T14:41:31.965Z,35.83
2019-02-28T14:44:00.766Z,35.73
2019-02-28T14:46:36.031Z,35.57
2019-02-28T14:49:04.593Z,35.70
2019-02-28T14:51:33.190Z,36.57
2019-02-28T14:54:07.929Z,36.60
2019-02-28T14:56:39.578Z,35.50
2019-02-28T14:59:13.938Z,36.70
2019-02-28T15:01:42.492Z,35.20
2019-02-28T15:04:11.379Z,37.00
2019-02-28T15:06:47.642Z,36.57
2019-02-28T15:09:16.603Z,35.73
2019-02-28T15:11:52.070Z,37.87
2019-02-28T15:14:20.714Z,41.67
2019-02-28T15:16:49.590Z,42.20
2019-02-28T15:19:25.522Z,43.07
2019-02-28T15:21:54.323Z,42.23
2019-02-28T15:24:29.360Z,44.90
2019-02-28T15:26:58.390Z,41.10
2019-02-28T15:29:27.020Z,42.40
2019-02-28T15:32:02.656Z,42.83
2019-02-28T15:34:41.084Z,41.77
2019-02-28T15:37:22.368Z,41.80
2019-02-28T15:39:51.047Z,43.50
2019-02-28T15:42:20.341Z,41.97
2019-02-28T15:44:55.803Z,42.33
2019-02-28T15:47:24.481Z,43.33
2019-02-28T15:50:00.566Z,40.97
2019-02-28T15:52:29.451Z,41.73
2019-02-28T15:55:02.004Z,41.03
2019-02-28T15:57:37.084Z,42.00
2019-02-28T16:00:10.515Z,42.23
2019-02-28T16:02:45.568Z,41.87
2019-02-28T16:05:14.165Z,42.23
2019-02-28T16:07:43.271Z,40.67
2019-02-28T16:10:21.784Z,41.97
2019-02-28T16:12:51.210Z,40.73
2019-02-28T16:15:27.149Z,38.70
2019-02-28T16:17:55.832Z,39.67
2019-02-28T16:20:25.121Z,40.00
2019-02-28T16:23:00.600Z,39.30
2019-02-28T16:25:34.384Z,42.07
2019-02-28T16:28:09.263Z,40.80
2019-02-28T16:30:39.763Z,43.37
2019-02-28T16:33:24.898Z,40.37
2019-02-28T16:35:52.178Z,42.60
2019-02-28T16:38:34.385Z,41.97
2019-02-28T16:41:03.274Z,41.90
2019-02-28T16:43:33.903Z,42.57
2019-02-28T16:46:09.065Z,43.77
2019-02-28T16:48:37.931Z,42.97
2019-02-28T16:51:13.781Z,43.67
2019-02-28T16:53:42.368Z,42.20
2019-02-28T16:56:11.349Z,43.63
2019-02-28T16:58:47.082Z,43.90
2019-02-28T17:01:17.592Z,45.80
2019-02-28T17:03:52.401Z,45.43
2019-02-28T17:06:21.167Z,45.00
2019-02-28T17:08:54.282Z,44.20
2019-02-28T17:11:29.286Z,45.77
2019-02-28T17:13:59.436Z,45.27
2019-02-28T17:16:38.762Z,46.03
2019-02-28T17:19:08.550Z,45.50
2019-02-28T17:21:44.000Z,48.93
2019-02-28T17:24:13.259Z,49.33
2019-02-28T17:26:58.879Z,47.67
2019-02-28T17:29:38.528Z,45.10
2019-02-28T17:32:13.567Z,47.20
2019-02-28T17:34:49.416Z,47.73
2019-02-28T17:37:32.646Z,47.33
2019-02-28T17:40:01.209Z,46.47
2019-02-28T17:42:33.533Z,49.50
2019-02-28T17:45:15.625Z,47.57
2019-02-28T17:48:00.906Z,48.20
2019-02-28T17:50:42.951Z,48.40
2019-02-28T17:53:21.489Z,46.33
2019-02-28T17:56:32.580Z,47.90
2019-02-28T17:59:25.388Z,43.57
2019-02-28T18:02:15.727Z,44.70
2019-02-28T18:05:30.128Z,52.83
2019-02-28T18:08:17.119Z,45.77
2019-02-28T18:11:06.696Z,40.93
2019-02-28T18:13:59.734Z,42.47
2019-02-28T18:16:54.620Z,42.30
2019-02-28T18:19:39.296Z,40.57
2019-02-28T18:22:32.760Z,38.97
2019-02-28T18:25:04.725Z,40.73
2019-02-28T18:27:50.728Z,40.33
2019-02-28T18:30:27.506Z,40.93
2019-02-28T18:33:03.362Z,39.00
2019-02-28T18:35:38.910Z,40.10
2019-02-28T18:38:20.836Z,41.03
2019-02-28T18:40:49.339Z,39.77
2019-02-28T18:43:18.066Z,41.20
2019-02-28T18:45:53.632Z,40.50
2019-02-28T18:48:22.231Z,41.60
2019-02-28T18:50:57.407Z,42.13
2019-02-28T18:53:26.036Z,41.77
2019-02-28T18:55:54.811Z,41.50
2019-02-28T18:58:30.443Z,41.00
2019-02-28T19:00:59.357Z,40.00
2019-02-28T19:03:35.320Z,41.60
2019-02-28T19:06:03.907Z,42.43
2019-02-28T19:08:32.586Z,40.23
2019-02-28T19:11:07.759Z,40.67
2019-02-28T19:13:36.724Z,40.87
2019-02-28T19:16:11.864Z,42.00
2019-02-28T19:18:40.468Z,42.03
2019-02-28T19:21:09.268Z,41.03
2019-02-28T19:23:44.357Z,41.67
2019-02-28T19:26:12.895Z,42.40
2019-02-28T19:28:50.097Z,42.60
2019-02-28T19:31:18.680Z,40.60
2019-02-28T19:33:47.435Z,43.77
2019-02-28T19:36:22.254Z,44.10
2019-02-28T19:38:57.709Z,43.93
2019-02-28T19:41:33.222Z,43.73
2019-02-28T19:44:01.847Z,45.50
2019-02-28T19:46:30.608Z,44.97
2019-02-28T19:49:06.613Z,45.23
2019-02-28T19:51:35.464Z,45.27
2019-02-28T19:54:11.103Z,44.87
2019-02-28T19:56:39.670Z,44.27
2019-02-28T19:59:08.469Z,45.07
2019-02-28T20:01:45.315Z,45.10
2019-02-28T20:04:15.412Z,44.47
2019-02-28T20:06:51.217Z,44.50
2019-02-28T20:09:19.907Z,45.90
2019-02-28T20:11:48.540Z,46.93
2019-02-28T20:14:23.832Z,44.87
2019-02-28T20:16:52.550Z,43.43
2019-02-28T20:19:27.913Z,46.90
2019-02-28T20:21:56.856Z,46.13
2019-02-28T20:24:32.104Z,46.87
2019-02-28T20:27:00.764Z,44.63
2019-02-28T20:29:37.177Z,47.47
2019-02-28T20:32:05.761Z,47.30
2019-02-28T20:34:34.368Z,48.03
2019-02-28T20:37:09.317Z,48.40
2019-02-28T20:39:44.611Z,46.10
2019-02-28T20:42:26.424Z,47.50
2019-02-28T20:44:54.956Z,49.03
2019-02-28T20:47:23.532Z,49.03
2019-02-28T20:49:59.311Z,46.87
2019-02-28T20:52:27.921Z,48.90
2019-02-28T20:55:03.919Z,49.47
2019-02-28T20:57:32.461Z,49.50
2019-02-28T21:00:08.207Z,49.80
2019-02-28T21:02:36.740Z,49.67
2019-02-28T21:05:06.326Z,48.90
2019-02-28T21:07:41.725Z,50.60
2019-02-28T21:10:11.169Z,50.37
2019-02-28T21:12:47.091Z,50.43
2019-02-28T21:15:15.667Z,49.10
2019-02-28T21:17:44.374Z,53.33
2019-02-28T21:20:24.276Z,52.30
2019-02-28T21:22:52.991Z,53.20
2019-02-28T21:25:28.173Z,53.43
2019-02-28T21:27:56.926Z,53.17
2019-02-28T21:30:26.870Z,51.43
2019-02-28T21:33:04.134Z,51.90
2019-02-28T21:35:33.017Z,51.93
2019-02-28T21:38:14.528Z,51.57
2019-02-28T21:40:50.136Z,52.20
2019-02-28T21:43:25.130Z,53.50
2019-02-28T21:45:53.718Z,51.93
2019-02-28T21:48:22.455Z,54.30
2019-02-28T21:50:58.528Z,54.27
2019-02-28T21:53:27.210Z,52.83
2019-02-28T21:56:02.136Z,52.67
2019-02-28T21:58:31.346Z,53.63
2019-02-28T22:00:59.975Z,53.97
2019-02-28T22:03:35.022Z,53.27
2019-02-28T22:06:03.618Z,55.17
2019-02-28T22:08:39.392Z,55.13
2019-02-28T22:11:08.284Z,55.70
2019-02-28T22:13:37.183Z,56.20
2019-02-28T22:16:13.151Z,54.57
2019-02-28T22:18:41.731Z,57.10
2019-02-28T22:21:17.983Z,60.43
2019-02-28T22:23:46.670Z,56.47
2019-02-28T22:26:15.559Z,56.53
2019-02-28T22:28:51.188Z,58.70
2019-02-28T22:31:27.247Z,57.40
2019-02-28T22:34:04.482Z,57.73
2019-02-28T22:36:35.199Z,56.67
2019-02-28T22:39:17.289Z,57.50
2019-02-28T22:41:52.530Z,58.73
2019-02-28T22:44:21.216Z,56.60
2019-02-28T22:46:56.970Z,57.43
2019-02-28T22:49:25.655Z,57.30
2019-02-28T22:52:01.234Z,59.53
2019-02-28T22:54:29.891Z,61.20
2019-02-28T22:56:58.591Z,60.00
2019-02-28T22:59:34.420Z,58.03
2019-02-28T23:02:03.222Z,57.50
2019-02-28T23:04:38.165Z,58.17
2019-02-28T23:07:07.165Z,60.40
2019-02-28T23:09:42.466Z,58.33
2019-02-28T23:12:11.079Z,58.70
2019-02-28T23:14:39.762Z,60.47
2019-02-28T23:17:15.732Z,57.80
2019-02-28T23:19:44.408Z,60.80
2019-02-28T23:22:19.647Z,60.53
2019-02-28T23:24:48.172Z,61.40
2019-02-28T23:27:17.274Z,61.67
2019-02-28T23:29:56.354Z,60.67
2019-02-28T23:32:37.105Z,61.57
2019-02-28T23:35:18.922Z,60.53
2019-02-28T23:37:53.749Z,60.10
2019-02-28T23:40:35.874Z,63.80
2019-02-28T23:43:04.641Z,62.03
2019-02-28T23:45:33.240Z,60.30
2019-02-28T23:48:08.568Z,59.93
2019-02-28T23:50:37.358Z,61.90
2019-02-28T23:53:13.007Z,63.00
2019-02-28T23:55:41.601Z,61.70
2019-02-28T23:58:10.410Z,59.70
